Time;durP1;ratioP1;P1;durP2;ratioP2;P2;SDS_P1;SDS_P2;PMS_P1;PMS_P2;Temp;Humidity;BMP_temperature;BMP_pressure;BME280_temperature;BME280_humidity;BME280_pressure;Samples;Min_cycle;Max_cycle;Signal;HPM_P1;HPM_P2
2024/01/27 00:00:36;;;;;;;2.55;1.63;;;;;;;5.76;58.51;100072.53;5126386;28;20081;-70
2024/01/27 00:03:03;;;;;;;3.08;1.60;;;;;;;5.76;58.49;100074.31;5126245;28;20044;-69
2024/01/27 00:05:30;;;;;;;2.92;1.50;;;;;;;5.78;58.10;100064.63;5127531;28;20051;-70
2024/01/27 00:07:56;;;;;;;4.30;2.80;;;;;;;5.78;58.64;100077.78;5127029;28;20105;-70
2024/01/27 00:10:24;;;;;;;3.00;1.73;;;;;;;5.80;58.59;100075.97;5127993;28;20047;-70
2024/01/27 00:12:51;;;;;;;3.80;1.83;;;;;;;5.76;58.33;100079.56;5127396;28;20113;-70
2024/01/27 00:15:18;;;;;;;2.90;1.60;;;;;;;5.81;58.28;100076.81;5127369;28;20102;-70
2024/01/27 00:17:45;;;;;;;3.38;1.55;;;;;;;5.79;58.29;100082.13;5127201;28;20092;-70
2024/01/27 00:20:12;;;;;;;4.85;2.10;;;;;;;5.77;58.71;100091.81;5126891;28;20172;-70
2024/01/27 00:22:39;;;;;;;3.50;1.67;;;;;;;5.73;57.79;100077.88;5126949;28;20097;-70
2024/01/27 00:25:06;;;;;;;2.55;1.65;;;;;;;5.72;57.78;100096.31;5127135;28;20043;-70
2024/01/27 00:27:34;;;;;;;3.08;1.80;;;;;;;5.73;57.80;100098.91;5127161;28;20299;-70
2024/01/27 00:30:01;;;;;;;2.72;1.67;;;;;;;5.72;57.45;100099.81;5126297;28;20048;-70
2024/01/27 00:32:28;;;;;;;3.22;1.60;;;;;;;5.71;56.96;100110.38;5126769;28;20043;-70
2024/01/27 00:34:54;;;;;;;3.42;1.70;;;;;;;5.70;57.41;100120.03;5126867;28;20357;-70
2024/01/27 00:37:21;;;;;;;2.22;1.60;;;;;;;5.69;56.91;100123.56;5126927;28;20043;-69
2024/01/27 00:39:48;;;;;;;2.60;1.77;;;;;;;5.71;57.59;100119.13;5125374;28;20058;-70
2024/01/27 00:42:15;;;;;;;2.65;1.70;;;;;;;5.45;56.96;100097.81;5127137;28;20055;-69
2024/01/27 00:44:43;;;;;;;2.90;1.60;;;;;;;5.68;56.98;100131.50;5126827;28;20100;-70
2024/01/27 00:47:09;;;;;;;2.50;1.55;;;;;;;5.70;56.96;100130.56;5126768;28;20054;-69
2024/01/27 00:49:36;;;;;;;2.42;1.60;;;;;;;5.69;56.95;100128.81;5127062;28;20097;-70
2024/01/27 00:52:03;;;;;;;2.42;1.58;;;;;;;5.70;57.45;100134.94;5126976;28;20341;-70
2024/01/27 00:54:30;;;;;;;2.60;1.60;;;;;;;5.71;56.48;100139.31;5126371;28;20296;-70
2024/01/27 00:56:56;;;;;;;2.20;1.60;;;;;;;5.69;56.30;100146.38;5126351;28;20188;-70
2024/01/27 00:59:23;;;;;;;2.47;1.70;;;;;;;5.18;56.94;100057.25;5126560;28;20341;-70
2024/01/27 01:01:51;;;;;;;2.63;1.60;;;;;;;5.70;56.63;100140.22;5126552;28;20184;-70
2024/01/27 01:04:18;;;;;;;2.67;2.00;;;;;;;5.71;56.84;100134.91;5126772;28;20211;-69
2024/01/27 01:06:44;;;;;;;3.58;2.53;;;;;;;5.72;57.61;100133.16;5126168;28;20119;-70
2024/01/27 01:09:11;;;;;;;3.08;2.00;;;;;;;5.65;57.99;100145.56;5126458;28;20043;-69
2024/01/27 01:11:38;;;;;;;2.88;1.98;;;;;;;5.66;57.96;100139.41;5126400;28;20043;-69
2024/01/27 01:14:04;;;;;;;2.63;1.70;;;;;;;5.66;57.83;100146.44;5126647;28;20100;-69
2024/01/27 01:16:31;;;;;;;2.67;1.77;;;;;;;5.64;57.73;100142.97;5126287;28;20234;-69
2024/01/27 01:18:59;;;;;;;2.90;1.90;;;;;;;5.67;58.13;100156.91;5125560;28;20074;-69
2024/01/27 01:21:26;;;;;;;3.65;1.90;;;;;;;5.65;57.79;100171.00;5126010;28;20083;-69
2024/01/27 01:23:53;;;;;;;3.30;1.77;;;;;;;5.62;58.02;100164.03;5126315;28;20040;-69
2024/01/27 01:26:20;;;;;;;3.08;1.80;;;;;;;5.37;57.48;100150.56;5126107;28;20047;-69
2024/01/27 01:28:46;;;;;;;4.50;2.15;;;;;;;5.57;57.86;100165.91;5126349;28;20040;-69
2024/01/27 01:31:13;;;;;;;2.80;1.98;;;;;;;5.59;57.94;100165.88;5125931;28;20031;-70
2024/01/27 01:33:39;;;;;;;3.60;1.70;;;;;;;5.59;58.04;100179.03;5126408;28;20169;-70
2024/01/27 01:36:08;;;;;;;4.75;2.53;;;;;;;5.56;58.25;100182.59;5125864;28;20296;-69
2024/01/27 01:38:34;;;;;;;3.78;2.47;;;;;;;5.12;57.92;100108.19;5125769;28;20039;-69
2024/01/27 01:41:01;;;;;;;5.85;2.00;;;;;;;5.34;58.07;100165.53;5125729;28;20362;-69
2024/01/27 01:43:28;;;;;;;3.13;2.00;;;;;;;5.53;58.35;100190.53;5130232;28;20043;-69
2024/01/27 01:45:55;;;;;;;2.70;1.77;;;;;;;5.56;58.86;100197.50;5129315;28;20092;-70
2024/01/27 01:48:21;;;;;;;3.97;1.90;;;;;;;5.36;59.07;100150.59;5129919;28;20047;-70
2024/01/27 01:50:48;;;;;;;2.67;2.03;;;;;;;5.38;59.56;100170.69;5130318;28;20218;-70
2024/01/27 01:53:16;;;;;;;3.85;1.90;;;;;;;5.49;59.71;100196.75;5130640;28;20040;-69
2024/01/27 01:55:43;;;;;;;4.22;2.25;;;;;;;5.52;59.85;100201.97;5130293;28;20092;-68
2024/01/27 01:58:10;;;;;;;2.97;2.03;;;;;;;5.52;59.98;100199.34;5129767;28;20046;-69
2024/01/27 02:00:37;;;;;;;2.63;1.83;;;;;;;5.47;60.29;100205.59;5129888;28;20035;-69
2024/01/27 02:03:04;;;;;;;3.03;1.90;;;;;;;5.24;60.00;100169.25;5129889;28;20051;-69
2024/01/27 02:05:32;;;;;;;2.75;2.10;;;;;;;5.41;60.20;100189.03;5128755;28;20031;-69
2024/01/27 02:08:00;;;;;;;2.63;1.98;;;;;;;5.45;59.99;100192.47;5128669;28;20048;-69
2024/01/27 02:10:35;;;;;;;2.65;1.77;;;;;;;5.39;60.00;100209.25;5129496;28;20043;-69
2024/01/27 02:13:02;;;;;;;3.70;2.00;;;;;;;5.40;59.92;100197.81;5130081;28;20039;-70
2024/01/27 02:15:29;;;;;;;2.85;2.10;;;;;;;5.11;60.30;100156.38;5129664;28;20044;-69
2024/01/27 02:17:55;;;;;;;3.97;1.90;;;;;;;5.35;60.41;100191.78;5129311;28;20214;-68
2024/01/27 02:20:22;;;;;;;4.40;2.13;;;;;;;5.38;60.63;100204.88;5129487;28;20128;-70
2024/01/27 02:22:49;;;;;;;3.13;2.17;;;;;;;5.36;60.71;100211.94;5129540;28;20051;-69
2024/01/27 02:25:17;;;;;;;3.67;2.17;;;;;;;5.32;61.17;100215.53;5129554;28;20187;-69
2024/01/27 02:27:43;;;;;;;3.55;2.28;;;;;;;5.32;61.68;100231.28;5129558;27;20044;-69
2024/01/27 02:30:10;;;;;;;2.97;2.00;;;;;;;5.36;61.67;100219.81;5129149;28;20035;-69
2024/01/27 02:32:37;;;;;;;3.13;2.20;;;;;;;5.32;61.52;100225.16;5128258;28;20052;-70
2024/01/27 02:35:04;;;;;;;6.25;2.25;;;;;;;5.28;61.47;100231.38;5129004;28;20303;-69
2024/01/27 02:37:31;;;;;;;3.00;2.63;;;;;;;5.27;61.36;100243.66;5129305;28;20104;-69
2024/01/27 02:39:58;;;;;;;3.42;2.10;;;;;;;5.20;61.22;100249.94;5129166;28;20046;-70
2024/01/27 02:42:26;;;;;;;2.85;2.22;;;;;;;5.24;61.17;100256.00;5129239;28;20043;-70
2024/01/27 02:44:52;;;;;;;3.97;2.50;;;;;;;5.30;61.25;100253.25;5129120;28;20051;-69
2024/01/27 02:47:19;;;;;;;3.28;2.10;;;;;;;5.05;60.88;100214.28;5129091;28;20056;-70
2024/01/27 02:49:45;;;;;;;3.03;2.10;;;;;;;5.27;60.77;100262.06;5129323;28;20192;-69
2024/01/27 02:52:13;;;;;;;3.00;2.00;;;;;;;5.25;60.73;100269.09;5129037;28;20073;-70
2024/01/27 02:54:40;;;;;;;5.50;2.40;;;;;;;5.20;60.56;100276.19;5128064;28;20307;-70
2024/01/27 02:57:07;;;;;;;3.40;2.00;;;;;;;5.22;60.43;100269.16;5128903;28;20054;-70
2024/01/27 02:59:35;;;;;;;3.40;2.05;;;;;;;4.27;60.50;100137.81;5129029;28;20055;-69
2024/01/27 03:02:02;;;;;;;4.28;2.10;;;;;;;5.19;60.10;100289.38;5128775;28;20200;-70
2024/01/27 03:04:28;;;;;;;3.00;1.92;;;;;;;5.14;60.29;100284.19;5128899;28;20242;-70
2024/01/27 03:06:55;;;;;;;3.42;2.35;;;;;;;5.18;60.21;100295.53;5129207;28;20210;-69
2024/01/27 03:09:21;;;;;;;5.00;2.35;;;;;;;5.19;60.09;100307.78;5128333;28;20296;-70
2024/01/27 03:11:48;;;;;;;2.63;1.85;;;;;;;5.21;60.02;100296.34;5128605;28;20036;-70
2024/01/27 03:14:15;;;;;;;2.70;2.03;;;;;;;5.17;60.32;100292.03;5128543;28;20044;-69
2024/01/27 03:16:44;;;;;;;4.60;2.40;;;;;;;5.12;60.78;100300.00;5128572;28;20070;-70
2024/01/27 03:19:11;;;;;;;3.78;2.33;;;;;;;5.15;60.89;100309.59;5128151;28;20123;-70
2024/01/27 03:21:38;;;;;;;3.85;2.60;;;;;;;5.10;61.06;100314.06;5128057;28;20035;-70
2024/01/27 03:24:05;;;;;;;4.00;2.60;;;;;;;5.04;61.30;100314.16;5128395;28;20304;-70
2024/01/27 03:26:32;;;;;;;6.70;2.35;;;;;;;5.10;61.21;100316.69;5128037;28;20085;-70
2024/01/27 03:28:58;;;;;;;2.80;2.20;;;;;;;5.13;61.20;100311.38;5127174;28;20035;-69
2024/01/27 03:31:31;;;;;;;3.75;2.55;;;;;;;5.05;61.70;100315.91;5128511;28;20047;-70
2024/01/27 03:33:59;;;;;;;3.15;2.40;;;;;;;4.79;61.52;100288.28;5128201;28;20107;-69
2024/01/27 03:36:25;;;;;;;5.07;2.42;;;;;;;4.95;61.66;100320.44;5128127;28;20250;-70
2024/01/27 03:38:52;;;;;;;3.58;2.30;;;;;;;4.76;61.78;100287.47;5128069;28;20088;-69
2024/01/27 03:41:19;;;;;;;3.83;2.50;;;;;;;4.92;62.10;100332.75;5127674;28;20291;-70
2024/01/27 03:43:45;;;;;;;6.53;2.80;;;;;;;4.97;62.02;100339.69;5128269;28;20048;-69
2024/01/27 03:46:12;;;;;;;4.57;2.88;;;;;;;4.96;62.14;100335.31;5127876;28;20043;-70
2024/01/27 03:48:38;;;;;;;4.90;2.90;;;;;;;4.71;62.29;100308.56;5127617;28;20345;-70
2024/01/27 03:51:07;;;;;;;4.57;2.67;;;;;;;4.68;62.46;100312.97;5127795;28;20047;-70
2024/01/27 03:53:34;;;;;;;3.17;2.47;;;;;;;4.86;63.00;100344.19;5126730;28;20039;-70
2024/01/27 03:56:02;;;;;;;5.13;3.38;;;;;;;4.82;63.12;100353.91;5127440;28;20352;-69
2024/01/27 03:58:29;;;;;;;3.63;2.83;;;;;;;4.86;63.13;100348.59;5127382;28;20300;-70
2024/01/27 04:00:57;;;;;;;4.20;2.55;;;;;;;3.77;62.99;100177.03;5127832;28;20048;-70
2024/01/27 04:03:24;;;;;;;5.03;3.03;;;;;;;4.74;63.20;100357.53;5127662;28;20040;-70
2024/01/27 04:05:50;;;;;;;5.72;2.63;;;;;;;4.72;62.89;100360.19;5127522;28;20062;-70
2024/01/27 04:08:18;;;;;;;3.72;2.50;;;;;;;4.74;62.86;100361.03;5127153;28;20059;-70
2024/01/27 04:10:45;;;;;;;5.38;2.80;;;;;;;4.70;62.23;100364.59;5127467;28;20039;-70
2024/01/27 04:13:12;;;;;;;5.38;2.53;;;;;;;4.74;62.21;100350.53;5127159;28;20364;-70
2024/01/27 04:15:39;;;;;;;4.93;2.58;;;;;;;4.70;61.94;100350.59;5127114;28;20115;-69
2024/01/27 04:18:07;;;;;;;4.30;2.50;;;;;;;4.64;62.01;100337.56;5127284;28;20107;-70
2024/01/27 04:20:34;;;;;;;4.35;2.53;;;;;;;4.64;62.02;100366.44;5127219;28;20048;-70
2024/01/27 04:23:01;;;;;;;3.55;2.53;;;;;;;4.61;62.28;100359.47;5127241;28;20043;-69
2024/01/27 04:25:29;;;;;;;4.05;2.50;;;;;;;4.61;62.21;100356.84;5127469;28;20070;-70
2024/01/27 04:27:56;;;;;;;5.05;2.80;;;;;;;4.29;62.28;100294.34;5127389;28;20047;-69
2024/01/27 04:30:22;;;;;;;5.25;3.10;;;;;;;4.63;62.43;100356.81;5126812;28;20085;-70
2024/01/27 04:32:51;;;;;;;3.65;2.72;;;;;;;4.55;62.80;100353.44;5127064;28;20043;-69
2024/01/27 04:35:18;;;;;;;3.95;2.72;;;;;;;4.57;62.66;100351.66;5125884;28;20093;-70
2024/01/27 04:37:45;;;;;;;4.78;2.67;;;;;;;4.53;63.08;100348.22;5126710;28;20204;-70
2024/01/27 04:40:14;;;;;;;3.80;2.50;;;;;;;3.86;62.75;100238.97;5126792;28;20043;-69
2024/01/27 04:42:42;;;;;;;4.97;2.78;;;;;;;4.56;62.45;100353.44;5126894;28;20055;-70
2024/01/27 04:45:09;;;;;;;5.10;3.47;;;;;;;4.45;62.45;100336.97;5126792;28;20040;-70
2024/01/27 04:47:36;;;;;;;3.72;2.65;;;;;;;4.55;62.28;100354.31;5126815;28;20281;-70
2024/01/27 04:50:03;;;;;;;5.40;2.67;;;;;;;4.52;62.63;100361.38;5125904;28;20075;-70
2024/01/27 04:52:30;;;;;;;5.72;3.58;;;;;;;4.52;62.61;100367.50;5126710;28;20051;-69
2024/01/27 04:54:56;;;;;;;4.45;2.90;;;;;;;4.45;62.84;100382.47;5125843;28;20069;-70
2024/01/27 04:57:23;;;;;;;5.22;2.88;;;;;;;4.50;62.77;100374.53;5126653;28;20196;-69
2024/01/27 04:59:51;;;;;;;5.78;3.10;;;;;;;4.47;62.53;100378.06;5126312;28;20284;-70
2024/01/27 05:02:18;;;;;;;3.83;2.58;;;;;;;4.47;62.50;100361.44;5126237;28;20039;-70
2024/01/27 05:04:45;;;;;;;3.78;2.70;;;;;;;3.78;62.37;100272.28;5126564;28;20105;-70
2024/01/27 05:07:12;;;;;;;4.43;2.90;;;;;;;4.43;62.47;100386.00;5126098;28;20074;-70
2024/01/27 05:09:38;;;;;;;4.68;2.60;;;;;;;4.41;62.59;100408.78;5126237;28;20045;-69
2024/01/27 05:12:06;;;;;;;3.97;2.50;;;;;;;4.45;61.91;100394.72;5126430;28;20050;-71
2024/01/27 05:14:32;;;;;;;5.63;3.15;;;;;;;4.04;61.96;100320.00;5125920;28;20204;-70
2024/01/27 05:17:00;;;;;;;4.28;3.03;;;;;;;4.44;61.86;100398.22;5125617;28;20324;-70
2024/01/27 05:19:27;;;;;;;4.22;2.65;;;;;;;4.42;61.83;100397.38;5126093;28;20040;-70
2024/01/27 05:21:53;;;;;;;5.18;2.80;;;;;;;4.38;61.69;100400.94;5126533;28;20196;-71
2024/01/27 05:24:20;;;;;;;4.40;2.58;;;;;;;4.50;61.54;100398.16;5126015;28;20288;-71
2024/01/27 05:26:47;;;;;;;3.83;2.65;;;;;;;4.44;61.23;100413.97;5125214;28;20047;-71
2024/01/27 05:29:13;;;;;;;6.28;2.65;;;;;;;4.45;61.50;100426.22;5124892;28;20044;-70
2024/01/27 05:31:43;;;;;;;5.38;2.85;;;;;;;4.38;61.38;100419.31;5126206;28;20046;-71
2024/01/27 05:34:11;;;;;;;3.47;2.90;;;;;;;4.36;61.69;100436.84;5126249;28;20073;-70
2024/01/27 05:36:37;;;;;;;5.78;3.10;;;;;;;4.37;61.50;100433.31;5126751;28;20109;-71
2024/01/27 05:39:04;;;;;;;5.97;3.15;;;;;;;4.36;61.14;100421.09;5125069;28;20092;-71
2024/01/27 05:41:31;;;;;;;5.13;2.80;;;;;;;4.11;61.27;100400.38;5126096;28;20063;-71
2024/01/27 05:43:57;;;;;;;4.00;2.85;;;;;;;4.31;61.19;100433.41;5126147;28;20055;-70
2024/01/27 05:46:24;;;;;;;5.28;3.08;;;;;;;4.29;61.12;100438.66;5125836;28;20043;-70
2024/01/27 05:48:53;;;;;;;5.68;3.30;;;;;;;4.24;61.36;100448.34;5126040;28;20046;-70
2024/01/27 05:51:22;;;;;;;4.90;3.28;;;;;;;4.24;61.36;100468.47;5125740;28;20099;-71
2024/01/27 05:53:49;;;;;;;4.53;2.88;;;;;;;4.28;61.37;100455.31;5125727;28;20043;-71
2024/01/27 05:56:16;;;;;;;4.47;2.95;;;;;;;4.25;61.38;100454.47;5126076;28;20233;-70
2024/01/27 05:58:43;;;;;;;3.08;2.45;;;;;;;4.30;61.61;100478.91;5126029;28;20051;-71
2024/01/27 06:01:09;;;;;;;5.95;2.90;;;;;;;4.22;61.44;100473.75;5124770;28;20081;-70
2024/01/27 06:03:36;;;;;;;4.63;2.50;;;;;;;4.16;61.60;100465.91;5125970;28;20047;-70
2024/01/27 06:06:03;;;;;;;4.57;2.90;;;;;;;3.32;61.39;100312.13;5125671;28;20040;-71
2024/01/27 06:08:31;;;;;;;8.05;3.55;;;;;;;4.24;61.51;100476.34;5125938;28;20283;-71
2024/01/27 06:10:57;;;;;;;4.38;3.05;;;;;;;4.22;61.68;100478.13;5125875;28;20292;-70
2024/01/27 06:13:24;;;;;;;5.30;2.90;;;;;;;4.25;61.12;100471.09;5125861;28;20055;-70
2024/01/27 06:15:51;;;;;;;5.03;3.00;;;;;;;4.23;61.49;100474.63;5125896;28;20048;-70
2024/01/27 06:18:18;;;;;;;5.28;2.53;;;;;;;4.29;61.38;100466.66;5126125;28;20078;-70
2024/01/27 06:20:45;;;;;;;5.55;2.85;;;;;;;4.23;61.48;100478.09;5125507;28;20088;-70
2024/01/27 06:23:11;;;;;;;6.35;3.08;;;;;;;4.26;61.48;100471.94;5125861;28;20078;-70
2024/01/27 06:25:40;;;;;;;5.38;3.45;;;;;;;4.23;61.27;100474.63;5125750;28;20085;-70
2024/01/27 06:28:06;;;;;;;4.53;2.80;;;;;;;4.21;61.36;100490.38;5125584;28;20043;-70
2024/01/27 06:30:33;;;;;;;3.83;3.17;;;;;;;4.18;61.80;100496.50;5128330;28;20039;-70
2024/01/27 06:32:59;;;;;;;6.55;3.60;;;;;;;4.18;61.54;100485.13;5129370;28;20039;-71
2024/01/27 06:35:26;;;;;;;5.18;3.28;;;;;;;4.18;61.46;100477.25;5128766;28;20047;-70
2024/01/27 06:37:53;;;;;;;5.15;3.28;;;;;;;4.27;61.17;100473.69;5128216;28;20127;-71
2024/01/27 06:40:20;;;;;;;4.82;3.20;;;;;;;4.17;61.52;100463.28;5129271;28;20043;-70
2024/01/27 06:42:48;;;;;;;5.35;2.80;;;;;;;4.15;61.10;100475.53;5129223;28;20035;-70
2024/01/27 06:45:14;;;;;;;7.35;3.28;;;;;;;4.17;60.97;100486.88;5129181;28;20051;-70
2024/01/27 06:47:41;;;;;;;5.43;3.25;;;;;;;4.16;60.49;100476.41;5129403;28;20093;-70
2024/01/27 06:50:08;;;;;;;4.20;2.92;;;;;;;4.14;60.41;100478.19;5129012;28;20101;-70
2024/01/27 06:52:35;;;;;;;5.43;3.22;;;;;;;4.14;60.34;100499.16;5129053;28;20047;-71
2024/01/27 06:55:02;;;;;;;4.38;3.00;;;;;;;4.16;60.72;100500.88;5128899;28;20054;-71
2024/01/27 06:57:28;;;;;;;4.70;3.17;;;;;;;4.10;60.23;100500.97;5128625;28;20077;-70
2024/01/27 06:59:56;;;;;;;7.07;3.80;;;;;;;4.11;60.40;100493.94;5129425;28;20047;-70
2024/01/27 07:02:23;;;;;;;4.68;2.83;;;;;;;4.08;60.49;100500.09;5128980;28;20043;-70
2024/01/27 07:04:50;;;;;;;6.47;3.22;;;;;;;4.08;60.26;100501.84;5129017;28;20043;-71
2024/01/27 07:07:17;;;;;;;4.63;3.00;;;;;;;4.10;60.47;100492.22;5128252;28;20189;-71
2024/01/27 07:09:43;;;;;;;6.13;3.00;;;;;;;4.09;60.48;100500.97;5128635;28;20043;-70
2024/01/27 07:12:10;;;;;;;4.95;3.45;;;;;;;4.12;60.71;100501.81;5128621;28;20177;-70
2024/01/27 07:14:37;;;;;;;5.63;3.33;;;;;;;4.03;60.96;100487.91;5127453;28;20218;-70
2024/01/27 07:17:05;;;;;;;7.70;3.30;;;;;;;4.12;60.98;100506.19;5127611;28;20085;-70
2024/01/27 07:19:32;;;;;;;7.43;3.40;;;;;;;4.09;61.07;100516.72;5129156;28;20043;-70
2024/01/27 07:21:59;;;;;;;6.00;3.33;;;;;;;4.07;61.21;100511.47;5128048;28;20047;-70
2024/01/27 07:24:26;;;;;;;7.20;3.88;;;;;;;4.03;61.15;100506.28;5128573;28;20042;-71
2024/01/27 07:26:53;;;;;;;6.20;3.15;;;;;;;3.99;61.22;100509.81;5128591;28;20108;-71
2024/01/27 07:29:20;;;;;;;4.97;3.50;;;;;;;4.02;61.12;100505.41;5128055;28;20065;-70
2024/01/27 07:31:47;;;;;;;4.32;3.60;;;;;;;4.01;61.48;100503.66;5127559;28;20036;-71
2024/01/27 07:34:15;;;;;;;6.78;3.00;;;;;;;4.02;61.05;100492.28;5128503;28;20130;-70
2024/01/27 07:36:41;;;;;;;7.00;3.55;;;;;;;3.99;60.82;100496.72;5127856;28;20043;-70
2024/01/27 07:39:08;;;;;;;6.72;2.95;;;;;;;4.04;60.77;100487.91;5127639;28;20044;-71
2024/01/27 07:41:35;;;;;;;5.22;3.50;;;;;;;4.05;60.86;100492.25;5126945;28;20118;-70
2024/01/27 07:44:09;;;;;;;6.53;3.33;;;;;;;4.11;60.74;100489.56;5127625;28;20047;-70
2024/01/27 07:46:35;;;;;;;5.28;3.40;;;;;;;4.23;60.54;100482.47;5127804;28;20049;-70
2024/01/27 07:49:02;;;;;;;9.38;3.78;;;;;;;4.29;60.68;100488.53;5127576;28;20105;-71
2024/01/27 07:51:30;;;;;;;5.53;3.33;;;;;;;4.37;60.35;100486.69;5127293;28;20203;-70
2024/01/27 07:53:57;;;;;;;5.47;3.45;;;;;;;4.11;60.26;100441.47;5127397;28;20241;-70
2024/01/27 07:56:24;;;;;;;4.60;3.15;;;;;;;4.39;59.87;100452.53;5127755;28;20067;-71
2024/01/27 07:58:50;;;;;;;5.20;2.88;;;;;;;4.56;59.66;100475.97;5127975;28;20051;-71
2024/01/27 08:01:18;;;;;;;5.00;3.13;;;;;;;4.84;59.36;100507.97;5127711;28;20088;-70
2024/01/27 08:03:44;;;;;;;4.22;3.10;;;;;;;4.95;59.07;100503.47;5127819;28;20051;-71
2024/01/27 08:06:17;;;;;;;4.63;3.88;;;;;;;4.48;58.19;100415.69;5126342;28;20119;-71
2024/01/27 08:08:46;;;;;;;5.20;3.63;;;;;;;5.19;57.63;100518.00;5126466;28;20036;-71
2024/01/27 08:11:13;;;;;;;6.40;3.90;;;;;;;5.34;57.66;100508.13;5127933;28;20106;-70
2024/01/27 08:13:40;;;;;;;5.93;3.95;;;;;;;5.41;57.26;100528.19;5127459;28;20040;-70
2024/01/27 08:16:09;;;;;;;4.70;2.88;;;;;;;5.47;56.82;100518.47;5127297;28;20092;-70
2024/01/27 08:18:36;;;;;;;5.35;3.15;;;;;;;5.60;56.96;100518.25;5127707;28;20059;-70
2024/01/27 08:21:03;;;;;;;5.40;3.60;;;;;;;5.69;56.49;100511.97;5127278;28;20043;-71
2024/01/27 08:23:29;;;;;;;5.20;3.58;;;;;;;5.59;56.30;100482.31;5127219;28;20300;-70
2024/01/27 08:25:58;;;;;;;5.53;3.25;;;;;;;5.94;55.63;100510.63;5127275;28;20050;-71
2024/01/27 08:28:25;;;;;;;6.15;3.15;;;;;;;5.65;54.88;100466.44;5126820;28;20035;-71
2024/01/27 08:30:52;;;;;;;7.70;4.38;;;;;;;6.12;54.72;100516.47;5127506;28;20040;-72
2024/01/27 08:33:18;;;;;;;7.88;3.67;;;;;;;6.29;54.35;100523.13;5127131;28;20043;-71
2024/01/27 08:35:47;;;;;;;4.88;3.47;;;;;;;6.37;53.69;100508.06;5127570;28;20283;-70
2024/01/27 08:38:14;;;;;;;5.97;3.47;;;;;;;6.40;53.34;100521.16;5127319;28;20188;-71
2024/01/27 08:40:40;;;;;;;6.10;3.28;;;;;;;6.38;53.42;100515.06;5126792;28;20051;-71
2024/01/27 08:43:09;;;;;;;6.97;3.60;;;;;;;6.66;53.01;100509.22;5126795;28;20047;-71
2024/01/27 08:45:36;;;;;;;4.07;3.03;;;;;;;6.64;53.10;100485.56;5126836;28;20043;-70
2024/01/27 08:48:04;;;;;;;4.60;2.70;;;;;;;6.81;52.62;100510.72;5126851;28;20097;-71
2024/01/27 08:50:30;;;;;;;5.72;3.65;;;;;;;6.91;51.98;100506.97;5125493;28;20318;-71
2024/01/27 08:52:57;;;;;;;4.97;3.10;;;;;;;6.96;52.00;100511.25;5126027;28;20089;-70
2024/01/27 08:55:24;;;;;;;5.07;3.17;;;;;;;7.00;50.83;100515.56;5126443;28;20096;-70
2024/01/27 08:57:51;;;;;;;5.60;2.92;;;;;;;6.73;50.90;100448.47;5126257;28;20107;-71
2024/01/27 09:00:20;;;;;;;6.13;3.67;;;;;;;7.23;50.41;100522.94;5126276;28;20035;-71
2024/01/27 09:02:47;;;;;;;5.03;3.35;;;;;;;7.36;50.69;100516.50;5126506;28;20059;-71
2024/01/27 09:05:14;;;;;;;5.63;3.08;;;;;;;7.48;49.62;100517.13;5125976;28;20036;-71
2024/01/27 09:07:41;;;;;;;4.60;3.10;;;;;;;7.28;49.51;100499.97;5125448;28;20047;-71
2024/01/27 09:10:12;;;;;;;6.63;3.25;;;;;;;7.69;49.73;100541.22;5126828;28;20039;-71
2024/01/27 09:12:39;;;;;;;7.25;4.07;;;;;;;7.68;49.21;100536.84;5125582;28;20308;-71
2024/01/27 09:15:07;;;;;;;6.03;3.33;;;;;;;7.84;49.24;100529.41;5125109;28;20355;-72
2024/01/27 09:17:35;;;;;;;7.93;4.50;;;;;;;7.76;48.81;100491.78;5126005;28;20051;-71
2024/01/27 09:20:02;;;;;;;4.65;2.80;;;;;;;8.00;48.56;100516.69;5125038;28;20040;-71
2024/01/27 09:22:29;;;;;;;7.10;3.00;;;;;;;7.12;48.39;100371.19;5126078;28;20227;-70
2024/01/27 09:24:56;;;;;;;7.55;4.38;;;;;;;8.02;48.29;100491.09;5125862;28;20106;-70
2024/01/27 09:27:23;;;;;;;5.80;3.42;;;;;;;8.37;47.66;100523.59;5126792;28;20043;-72
2024/01/27 09:29:50;;;;;;;6.03;3.50;;;;;;;7.63;47.62;100420.00;5126397;28;20067;-71
2024/01/27 09:32:17;;;;;;;6.05;3.70;;;;;;;7.33;47.47;100349.56;5126071;28;20355;-70
2024/01/27 09:34:45;;;;;;;8.13;4.55;;;;;;;7.93;47.91;100425.34;5126132;28;20101;-71
2024/01/27 09:37:12;;;;;;;8.30;4.13;;;;;;;8.48;47.28;100510.97;5124959;28;20207;-71
2024/01/27 09:39:39;;;;;;;7.47;3.40;;;;;;;8.55;46.70;100518.69;5125609;28;20165;-71
2024/01/27 09:42:08;;;;;;;6.35;3.53;;;;;;;8.58;47.13;100509.78;5125996;28;20059;-71
2024/01/27 09:44:35;;;;;;;6.63;4.13;;;;;;;8.10;46.56;100404.63;5125585;28;20051;-71
2024/01/27 09:47:03;;;;;;;8.00;4.10;;;;;;;8.91;46.50;100516.72;5125798;28;20048;-71
2024/01/27 09:49:31;;;;;;;7.25;3.90;;;;;;;8.91;45.93;100522.03;5125629;28;20160;-71
2024/01/27 09:52:00;;;;;;;6.38;4.28;;;;;;;8.90;46.24;100515.00;5126151;28;20055;-72
2024/01/27 09:54:27;;;;;;;7.28;3.30;;;;;;;9.05;45.49;100494.28;5125707;28;20059;-71
2024/01/27 09:56:56;;;;;;;5.43;4.05;;;;;;;8.99;45.45;100508.56;5125956;28;20186;-71
2024/01/27 09:59:23;;;;;;;7.82;4.20;;;;;;;9.06;45.20;100504.81;5126080;28;20231;-71
2024/01/27 10:01:51;;;;;;;8.52;3.50;;;;;;;9.11;45.39;100510.84;5126071;28;20054;-71
2024/01/27 10:04:20;;;;;;;5.95;3.83;;;;;;;9.10;44.83;100516.19;5129041;28;20052;-71
2024/01/27 10:06:48;;;;;;;4.90;3.25;;;;;;;9.15;44.83;100506.31;5129640;28;20075;-71
2024/01/27 10:09:16;;;;;;;8.65;3.65;;;;;;;9.25;45.20;100502.50;5129878;28;20096;-71
2024/01/27 10:11:48;;;;;;;5.20;3.55;;;;;;;8.77;44.69;100418.47;5130685;28;20226;-71
2024/01/27 10:14:15;;;;;;;8.25;4.32;;;;;;;8.83;43.98;100426.22;5128527;28;20051;-70
2024/01/27 10:16:43;;;;;;;6.10;4.00;;;;;;;9.32;43.75;100481.09;5129736;28;20039;-70
2024/01/27 10:19:16;;;;;;;5.85;3.95;;;;;;;9.40;43.83;100459.72;5129201;28;20051;-70
2024/01/27 10:21:42;;;;;;;7.90;4.10;;;;;;;9.45;44.11;100480.75;5129550;28;20058;-70
2024/01/27 10:24:09;;;;;;;5.68;3.28;;;;;;;9.62;44.44;100496.94;5129977;28;20096;-70
2024/01/27 10:26:37;;;;;;;5.85;3.30;;;;;;;9.45;43.16;100470.16;5128960;28;20177;-70
2024/01/27 10:29:04;;;;;;;5.07;3.00;;;;;;;9.48;43.60;100488.56;5129172;28;20044;-70
2024/01/27 10:31:32;;;;;;;6.43;3.72;;;;;;;9.52;44.12;100504.31;5129119;28;20084;-70
2024/01/27 10:34:01;;;;;;;5.47;3.38;;;;;;;9.55;44.19;100508.63;5129042;28;20073;-71
2024/01/27 10:36:38;;;;;;;7.45;3.47;;;;;;;8.82;44.16;100402.47;5129557;28;20044;-71
2024/01/27 10:39:15;;;;;;;5.68;3.00;;;;;;;9.54;43.94;100536.00;5129087;28;20092;-71
2024/01/27 10:41:45;;;;;;;4.45;3.10;;;;;;;9.67;44.41;100529.41;5129009;28;20348;-71
2024/01/27 10:44:15;;;;;;;5.55;3.00;;;;;;;9.66;43.68;100535.63;5128689;28;20084;-71
2024/01/27 10:46:45;;;;;;;9.18;4.20;;;;;;;9.80;43.96;100525.44;5128979;28;20039;-71
2024/01/27 10:49:13;;;;;;;6.68;4.60;;;;;;;9.97;43.58;100526.66;5128997;28;20039;-71
2024/01/27 10:51:45;;;;;;;5.95;3.65;;;;;;;9.85;43.61;100539.38;5129102;28;20039;-71
2024/01/27 10:54:16;;;;;;;6.53;3.65;;;;;;;9.69;43.17;100548.75;5129140;28;20343;-71
2024/01/27 10:56:47;;;;;;;7.55;3.55;;;;;;;9.79;43.16;100552.81;5128777;28;20315;-71
2024/01/27 10:59:16;;;;;;;8.35;4.57;;;;;;;9.80;43.13;100536.03;5128529;28;20035;-71
2024/01/27 11:01:43;;;;;;;6.45;4.78;;;;;;;9.78;42.73;100498.16;5128705;28;20039;-70
2024/01/27 11:04:14;;;;;;;5.57;3.97;;;;;;;7.94;44.45;100164.00;5128485;28;20192;-71
2024/01/27 11:06:42;;;;;;;5.45;3.33;;;;;;;9.85;43.20;100486.44;5128309;28;20177;-70
2024/01/27 11:09:11;;;;;;;5.88;3.60;;;;;;;9.76;43.59;100507.06;5128700;28;20046;-70
2024/01/27 11:11:39;;;;;;;5.20;2.92;;;;;;;9.70;43.28;100531.94;5128337;28;20089;-70
2024/01/27 11:14:09;;;;;;;6.65;3.08;;;;;;;9.50;43.36;100534.38;5127495;28;20044;-70
2024/01/27 11:16:38;;;;;;;5.97;3.88;;;;;;;9.29;43.85;100542.03;5127980;28;20063;-71
2024/01/27 11:19:05;;;;;;;7.22;4.30;;;;;;;9.16;44.47;100527.44;5128101;28;20202;-71
2024/01/27 11:21:32;;;;;;;8.52;4.38;;;;;;;9.10;44.48;100535.56;5128453;28;20093;-70
2024/01/27 11:23:59;;;;;;;7.25;5.00;;;;;;;9.08;44.74;100557.66;5128418;28;20292;-71
2024/01/27 11:26:26;;;;;;;6.97;3.50;;;;;;;9.01;44.41;100541.13;5128957;28;20161;-70
2024/01/27 11:28:53;;;;;;;7.68;4.07;;;;;;;9.03;45.37;100543.72;5128060;28;20043;-71
2024/01/27 11:31:21;;;;;;;6.38;3.78;;;;;;;8.89;45.29;100547.63;5128380;28;20044;-71
2024/01/27 11:33:51;;;;;;;6.93;3.22;;;;;;;8.70;45.74;100564.06;5128591;28;20279;-70